createdAt,value
2018-03-17T00:01:46.232Z,22.53
2018-03-17T00:04:13.740Z,19.00
2018-03-17T00:06:42.000Z,17.73
2018-03-17T00:09:09.512Z,22.07
2018-03-17T00:11:36.988Z,20.73
2018-03-17T00:14:04.516Z,17.17
2018-03-17T00:16:31.992Z,23.07
2018-03-17T00:18:59.531Z,15.97
2018-03-17T00:21:26.998Z,14.73
2018-03-17T00:23:54.502Z,14.73
2018-03-17T00:26:21.981Z,15.63
2018-03-17T00:28:50.245Z,16.57
2018-03-17T00:31:18.471Z,17.83
2018-03-17T00:33:45.993Z,23.80
2018-03-17T00:36:14.252Z,15.07
2018-03-17T00:38:41.740Z,18.90
2018-03-17T00:41:09.224Z,34.57
2018-03-17T00:43:36.711Z,31.40
2018-03-17T00:46:04.214Z,30.50
2018-03-17T00:48:31.691Z,30.87
2018-03-17T00:50:59.197Z,22.83
2018-03-17T00:53:26.672Z,25.93
2018-03-17T00:55:54.968Z,24.63
2018-03-17T00:58:22.463Z,30.83
2018-03-17T01:00:50.014Z,36.87
2018-03-17T01:03:17.489Z,29.87
2018-03-17T01:05:45.034Z,24.93
2018-03-17T01:08:12.510Z,27.80
2018-03-17T01:10:40.017Z,18.23
2018-03-17T01:13:07.491Z,20.67
2018-03-17T01:15:35.036Z,19.50
2018-03-17T01:18:02.512Z,20.03
2018-03-17T01:20:30.023Z,19.63
2018-03-17T01:22:58.262Z,20.87
2018-03-17T01:25:25.890Z,24.17
2018-03-17T01:27:53.372Z,21.33
2018-03-17T01:30:20.881Z,21.47
2018-03-17T01:32:49.129Z,25.30
2018-03-17T01:35:16.626Z,34.47
2018-03-17T01:37:44.099Z,26.40
2018-03-17T01:40:11.708Z,28.73
2018-03-17T01:42:39.204Z,21.47
2018-03-17T01:45:06.680Z,27.90
2018-03-17T01:47:34.185Z,30.27
2018-03-17T01:50:01.665Z,24.23
2018-03-17T01:52:29.940Z,22.23
2018-03-17T01:54:58.175Z,19.90
2018-03-17T01:57:25.686Z,27.23
2018-03-17T01:59:53.159Z,27.93
2018-03-17T02:02:20.652Z,19.53
2018-03-17T02:04:48.117Z,26.63
2018-03-17T02:07:15.638Z,25.17
2018-03-17T02:09:43.590Z,27.90
2018-03-17T02:12:11.103Z,22.57
2018-03-17T02:14:38.598Z,24.30
2018-03-17T02:17:06.892Z,24.47
2018-03-17T02:19:34.361Z,27.40
2018-03-17T02:22:01.872Z,22.30
2018-03-17T02:24:30.140Z,22.20
2018-03-17T02:26:57.654Z,20.07
2018-03-17T02:29:25.130Z,20.50
2018-03-17T02:31:52.620Z,15.73
2018-03-17T02:34:20.161Z,21.70
2018-03-17T02:36:47.829Z,22.37
2018-03-17T02:39:15.317Z,17.47
2018-03-17T02:41:43.563Z,18.93
2018-03-17T02:44:11.076Z,15.93
2018-03-17T02:46:38.555Z,21.90
2018-03-17T02:49:06.049Z,31.60
2018-03-17T02:51:33.835Z,29.00
2018-03-17T02:54:01.344Z,36.23
2018-03-17T02:56:28.804Z,44.30
2018-03-17T02:58:56.312Z,41.57
2018-03-17T03:01:23.801Z,40.67
2018-03-17T03:03:51.306Z,40.73
2018-03-17T03:06:18.799Z,40.93
2018-03-17T03:08:46.297Z,40.83
2018-03-17T03:11:13.763Z,42.13
2018-03-17T03:13:41.314Z,35.70
2018-03-17T03:16:08.830Z,34.00
2018-03-17T03:18:36.335Z,29.83
2018-03-17T03:21:03.807Z,27.97
2018-03-17T03:23:31.315Z,27.30
2018-03-17T03:25:58.799Z,27.40
2018-03-17T03:28:26.293Z,26.97
2018-03-17T03:30:54.536Z,27.77
2018-03-17T03:33:22.025Z,28.20
2018-03-17T03:35:50.274Z,27.77
2018-03-17T03:38:18.064Z,27.07
2018-03-17T03:40:46.316Z,26.60
2018-03-17T03:43:13.790Z,26.10
2018-03-17T03:45:42.060Z,25.33
2018-03-17T03:48:09.579Z,26.63
2018-03-17T03:50:37.064Z,26.27
2018-03-17T03:53:04.535Z,27.90
2018-03-17T03:55:32.128Z,22.20
2018-03-17T03:57:59.608Z,23.70
2018-03-17T04:00:27.122Z,24.37
2018-03-17T04:02:55.404Z,22.80
2018-03-17T04:05:23.674Z,26.40
2018-03-17T04:07:51.920Z,22.50
2018-03-17T04:10:19.416Z,24.77
2018-03-17T04:12:47.675Z,23.27
2018-03-17T04:15:15.189Z,23.27
2018-03-17T04:17:42.669Z,23.83
2018-03-17T04:20:10.166Z,19.63
2018-03-17T04:22:37.678Z,25.17
2018-03-17T04:25:05.167Z,25.07
2018-03-17T04:27:32.659Z,24.87
2018-03-17T04:30:00.167Z,25.87
2018-03-17T04:32:27.647Z,23.70
2018-03-17T04:34:55.911Z,25.63
2018-03-17T04:37:24.163Z,25.40
2018-03-17T04:39:51.659Z,24.17
2018-03-17T04:42:19.905Z,23.93
2018-03-17T04:44:47.404Z,26.53
2018-03-17T04:47:15.653Z,23.57
2018-03-17T04:49:43.201Z,22.03
2018-03-17T04:52:10.668Z,24.00
2018-03-17T04:54:38.210Z,20.13
2018-03-17T04:57:05.667Z,20.87
2018-03-17T04:59:33.159Z,24.27
2018-03-17T05:02:01.411Z,21.50
2018-03-17T05:04:28.925Z,23.93
2018-03-17T05:06:56.426Z,20.37
2018-03-17T05:09:24.062Z,19.07
2018-03-17T05:11:51.543Z,18.97
2018-03-17T05:14:19.027Z,21.47
2018-03-17T05:16:47.440Z,20.97
2018-03-17T05:19:14.961Z,17.77
2018-03-17T05:21:42.437Z,18.67
2018-03-17T05:24:10.123Z,16.87
2018-03-17T05:26:37.612Z,18.50
2018-03-17T05:29:05.111Z,16.87
2018-03-17T05:31:33.351Z,13.60
2018-03-17T05:34:00.987Z,13.70
2018-03-17T05:36:28.466Z,16.87
2018-03-17T05:38:55.942Z,14.53
2018-03-17T05:41:23.464Z,13.67
2018-03-17T05:43:50.942Z,14.13
2018-03-17T05:46:18.444Z,16.07
2018-03-17T05:48:45.923Z,16.10
2018-03-17T05:51:13.436Z,16.10
2018-03-17T05:53:40.912Z,16.60
2018-03-17T05:56:09.176Z,15.83
2018-03-17T05:58:37.437Z,16.57
2018-03-17T06:01:04.958Z,15.23
2018-03-17T06:03:32.441Z,15.20
2018-03-17T06:05:59.933Z,16.87
2018-03-17T06:08:28.194Z,17.03
2018-03-17T06:10:55.703Z,15.33
2018-03-17T06:13:23.183Z,16.07
2018-03-17T06:15:50.672Z,18.83
2018-03-17T06:18:18.959Z,16.00
2018-03-17T06:20:47.238Z,18.80
2018-03-17T06:23:15.487Z,20.37
2018-03-17T06:25:43.006Z,19.37
2018-03-17T06:28:10.486Z,22.50
2018-03-17T06:30:37.983Z,19.53
2018-03-17T06:33:06.214Z,20.00
2018-03-17T06:35:33.922Z,21.13
2018-03-17T06:38:02.186Z,18.33
2018-03-17T06:40:29.698Z,19.50
2018-03-17T06:42:57.173Z,20.27
2018-03-17T06:45:24.667Z,17.20
2018-03-17T06:47:52.900Z,21.63
2018-03-17T06:50:20.387Z,21.73
2018-03-17T06:52:47.861Z,21.43
2018-03-17T06:55:16.139Z,21.00
2018-03-17T06:57:43.645Z,20.03
2018-03-17T07:00:11.157Z,21.10
2018-03-17T07:02:39.430Z,20.73
2018-03-17T07:05:07.696Z,20.93
2018-03-17T07:07:35.170Z,26.10
2018-03-17T07:10:03.443Z,22.23
2018-03-17T07:12:31.720Z,21.50
2018-03-17T07:14:59.967Z,22.77
2018-03-17T07:17:27.456Z,22.30
2018-03-17T07:19:55.725Z,23.57
2018-03-17T07:22:23.973Z,23.03
2018-03-17T07:24:51.476Z,23.93
2018-03-17T07:27:18.949Z,25.93
2018-03-17T07:29:46.879Z,21.77
2018-03-17T07:32:15.134Z,23.87
2018-03-17T07:34:42.671Z,22.47
2018-03-17T07:37:10.167Z,22.87
2018-03-17T07:39:37.660Z,25.57
2018-03-17T07:42:05.177Z,24.93
2018-03-17T07:44:32.670Z,22.03
2018-03-17T07:47:00.172Z,21.07
2018-03-17T07:49:27.666Z,21.77
2018-03-17T07:51:55.952Z,21.60
2018-03-17T07:54:24.196Z,21.43
2018-03-17T07:56:51.698Z,24.17
2018-03-17T07:59:19.234Z,24.43
2018-03-17T08:01:47.514Z,21.63
2018-03-17T08:04:15.765Z,21.63
2018-03-17T08:06:44.161Z,20.50
2018-03-17T08:09:12.398Z,22.40
2018-03-17T08:11:39.915Z,24.03
2018-03-17T08:14:07.392Z,22.70
2018-03-17T08:16:34.874Z,21.30
2018-03-17T08:19:02.383Z,21.50
2018-03-17T08:21:30.644Z,24.57
2018-03-17T08:23:58.906Z,23.43
2018-03-17T08:26:26.411Z,22.70
2018-03-17T08:28:53.937Z,22.27
2018-03-17T08:31:22.190Z,21.90
2018-03-17T08:33:49.690Z,21.17
2018-03-17T08:36:17.176Z,26.10
2018-03-17T08:38:44.667Z,38.23
2018-03-17T08:41:12.148Z,24.07
2018-03-17T08:43:40.628Z,22.33
2018-03-17T08:46:08.111Z,23.30
2018-03-17T08:48:35.656Z,21.43
2018-03-17T08:51:03.909Z,22.57
2018-03-17T08:53:32.128Z,22.13
2018-03-17T08:56:00.380Z,21.97
2018-03-17T08:58:28.670Z,20.17
2018-03-17T09:00:56.142Z,20.07
2018-03-17T09:03:23.780Z,19.57
2018-03-17T09:05:52.022Z,21.53
2018-03-17T09:08:19.547Z,20.50
2018-03-17T09:10:47.101Z,19.90
2018-03-17T09:13:15.406Z,21.97
2018-03-17T09:15:42.929Z,20.47
2018-03-17T09:18:10.413Z,22.13
2018-03-17T09:20:37.925Z,22.70
2018-03-17T09:23:06.172Z,21.50
2018-03-17T09:25:33.678Z,22.50
2018-03-17T09:28:01.169Z,21.73
2018-03-17T09:30:28.663Z,19.33
2018-03-17T09:32:57.965Z,20.30
2018-03-17T09:35:26.261Z,19.13
2018-03-17T09:37:53.752Z,20.27
2018-03-17T09:40:21.255Z,19.30
2018-03-17T09:42:49.511Z,20.77
2018-03-17T09:45:17.029Z,19.13
2018-03-17T09:47:44.500Z,21.77
2018-03-17T09:50:12.006Z,22.93
2018-03-17T09:52:40.277Z,23.43
2018-03-17T09:55:08.566Z,20.43
2018-03-17T09:57:36.821Z,21.87
2018-03-17T10:00:04.344Z,21.07
2018-03-17T10:02:31.847Z,21.23
2018-03-17T10:05:00.091Z,22.27
2018-03-17T10:07:27.641Z,24.00
2018-03-17T10:09:55.133Z,21.87
2018-03-17T10:12:22.642Z,21.63
2018-03-17T10:14:50.274Z,18.63
2018-03-17T10:17:18.544Z,19.87
2018-03-17T10:19:46.780Z,21.17
2018-03-17T10:22:14.298Z,22.97
2018-03-17T10:24:41.764Z,24.70
2018-03-17T10:27:09.268Z,21.47
2018-03-17T10:29:36.771Z,20.43
2018-03-17T10:32:04.271Z,22.67
2018-03-17T10:34:31.792Z,21.53
2018-03-17T10:36:59.328Z,20.43
2018-03-17T10:39:27.567Z,19.10
2018-03-17T10:41:55.056Z,22.87
2018-03-17T10:44:23.328Z,21.03
2018-03-17T10:46:51.582Z,20.53
2018-03-17T10:49:19.067Z,19.70
2018-03-17T10:51:47.333Z,19.37
2018-03-17T10:54:14.843Z,21.63
2018-03-17T10:56:42.351Z,19.43
2018-03-17T10:59:10.683Z,20.83
2018-03-17T11:01:41.944Z,19.90
2018-03-17T11:04:09.422Z,19.60
2018-03-17T11:06:36.927Z,22.23
2018-03-17T11:09:04.477Z,20.40
2018-03-17T11:11:31.962Z,18.60
2018-03-17T11:13:59.514Z,19.83
2018-03-17T11:16:26.992Z,18.73
2018-03-17T11:18:54.500Z,20.33
2018-03-17T11:21:21.976Z,20.23
2018-03-17T11:23:49.498Z,21.40
2018-03-17T11:26:17.103Z,19.50
2018-03-17T11:28:44.554Z,20.17
2018-03-17T11:31:12.033Z,21.33
2018-03-17T11:33:39.566Z,24.60
2018-03-17T11:36:07.053Z,21.37
2018-03-17T11:38:34.544Z,19.07
2018-03-17T11:41:02.033Z,18.80
2018-03-17T11:43:29.540Z,20.17
2018-03-17T11:45:57.039Z,21.07
2018-03-17T11:48:25.331Z,19.53
2018-03-17T11:50:52.846Z,19.80
2018-03-17T11:53:20.319Z,20.57
2018-03-17T11:55:48.593Z,19.57
2018-03-17T11:58:17.004Z,20.03
2018-03-17T12:00:44.511Z,20.20
2018-03-17T12:03:12.024Z,18.23
2018-03-17T12:05:39.519Z,19.03
2018-03-17T12:08:07.002Z,19.47
2018-03-17T12:10:34.522Z,18.13
2018-03-17T12:13:02.008Z,18.47
2018-03-17T12:15:29.523Z,20.03
2018-03-17T12:17:57.810Z,18.20
2018-03-17T12:20:25.309Z,17.67
2018-03-17T12:22:52.788Z,19.70
2018-03-17T12:25:20.288Z,18.40
2018-03-17T12:27:47.785Z,17.73
2018-03-17T12:30:15.269Z,18.37
2018-03-17T12:32:42.806Z,17.47
2018-03-17T12:35:11.055Z,16.80
2018-03-17T12:37:38.603Z,19.83
2018-03-17T12:40:06.082Z,18.27
2018-03-17T12:42:33.585Z,17.90
2018-03-17T12:45:01.066Z,17.43
2018-03-17T12:47:28.647Z,17.63
2018-03-17T12:49:56.085Z,16.83
2018-03-17T12:52:23.596Z,16.23
2018-03-17T12:54:51.844Z,16.20
2018-03-17T12:57:19.369Z,14.93
2018-03-17T12:59:46.854Z,15.13
2018-03-17T13:02:14.365Z,16.40
2018-03-17T13:04:41.835Z,15.63
2018-03-17T13:07:09.371Z,14.97
2018-03-17T13:09:37.613Z,18.30
2018-03-17T13:12:05.095Z,15.13
2018-03-17T13:14:33.361Z,16.47
2018-03-17T13:17:01.725Z,15.07
2018-03-17T13:19:31.134Z,17.07
2018-03-17T13:21:58.629Z,17.93
2018-03-17T13:24:26.150Z,15.83
2018-03-17T13:27:05.579Z,16.17
2018-03-17T13:29:33.089Z,16.27
2018-03-17T13:32:00.568Z,15.00
2018-03-17T13:34:28.073Z,15.03
2018-03-17T13:37:08.356Z,15.60
2018-03-17T13:39:35.852Z,14.97
2018-03-17T13:42:03.343Z,14.87
2018-03-17T13:44:30.842Z,15.87
2018-03-17T13:46:58.310Z,14.80
2018-03-17T13:49:26.575Z,15.83
2018-03-17T13:51:54.078Z,15.30
2018-03-17T13:54:21.591Z,14.77
2018-03-17T13:56:49.081Z,14.07
2018-03-17T13:59:16.639Z,15.80
2018-03-17T14:01:44.312Z,14.77
2018-03-17T14:04:12.118Z,15.10
2018-03-17T14:06:39.624Z,14.67
2018-03-17T14:09:07.156Z,15.60
2018-03-17T14:11:34.651Z,16.37
2018-03-17T14:14:02.174Z,14.93
2018-03-17T14:16:29.648Z,14.60
2018-03-17T14:18:57.288Z,14.87
2018-03-17T14:21:24.766Z,14.93
2018-03-17T14:23:52.269Z,14.07
2018-03-17T14:26:19.784Z,13.97
2018-03-17T14:28:47.251Z,15.43
2018-03-17T14:31:14.747Z,14.17
2018-03-17T14:33:43.033Z,14.77
2018-03-17T14:36:11.335Z,15.53
2018-03-17T14:38:38.815Z,15.07
2018-03-17T14:41:06.316Z,15.37
2018-03-17T14:43:34.558Z,16.40
2018-03-17T14:46:02.118Z,17.07
2018-03-17T14:48:29.588Z,15.07
2018-03-17T14:50:57.085Z,16.03
2018-03-17T14:53:24.581Z,15.53
2018-03-17T14:55:52.100Z,15.60
2018-03-17T14:58:19.572Z,15.77
2018-03-17T15:00:47.076Z,14.93
2018-03-17T15:03:14.567Z,14.10
2018-03-17T15:05:42.834Z,15.20
2018-03-17T15:08:11.089Z,14.57
2018-03-17T15:10:38.594Z,14.43
2018-03-17T15:13:06.064Z,14.90
2018-03-17T15:15:33.570Z,14.23
2018-03-17T15:18:01.095Z,16.10
2018-03-17T15:20:28.609Z,14.40
2018-03-17T15:22:56.853Z,20.67
2018-03-17T15:25:24.403Z,15.53
2018-03-17T15:27:51.864Z,15.27
2018-03-17T15:30:19.403Z,13.40
2018-03-17T15:32:46.905Z,13.77
2018-03-17T15:35:15.147Z,14.10
2018-03-17T15:37:42.651Z,14.37
2018-03-17T15:40:10.896Z,13.47
2018-03-17T15:42:38.414Z,13.93
2018-03-17T15:45:05.906Z,13.20
2018-03-17T15:47:33.419Z,13.07
2018-03-17T15:50:00.906Z,19.17
2018-03-17T15:52:28.432Z,15.77
2018-03-17T15:54:56.681Z,13.23
2018-03-17T15:57:24.166Z,14.77
2018-03-17T15:59:51.687Z,14.63
2018-03-17T16:02:19.160Z,13.60
2018-03-17T16:04:47.431Z,13.30
2018-03-17T16:07:15.665Z,12.90
2018-03-17T16:09:43.173Z,14.03
2018-03-17T16:12:11.416Z,15.83
2018-03-17T16:14:38.938Z,15.93
2018-03-17T16:17:06.420Z,14.13
2018-03-17T16:19:33.907Z,15.53
2018-03-17T16:22:01.389Z,14.63
2018-03-17T16:24:29.669Z,14.90
2018-03-17T16:26:57.140Z,17.20
2018-03-17T16:29:24.673Z,19.20
2018-03-17T16:31:52.962Z,17.33
2018-03-17T16:34:20.471Z,15.10
2018-03-17T16:36:47.953Z,15.23
2018-03-17T16:39:15.514Z,16.07
2018-03-17T16:41:42.991Z,13.17
2018-03-17T16:44:10.504Z,14.13
2018-03-17T16:46:37.987Z,15.13
2018-03-17T16:49:06.667Z,15.60
2018-03-17T16:51:34.155Z,13.83
2018-03-17T16:54:01.656Z,14.27
2018-03-17T16:56:29.177Z,13.87
2018-03-17T16:58:56.678Z,13.80
2018-03-17T17:01:24.202Z,14.20
2018-03-17T17:03:51.710Z,13.60
2018-03-17T17:06:19.219Z,13.63
2018-03-17T17:08:46.719Z,12.33
2018-03-17T17:11:14.241Z,13.30
2018-03-17T17:13:41.737Z,13.50
2018-03-17T17:16:09.262Z,14.17
2018-03-17T17:18:36.779Z,13.87
2018-03-17T17:21:05.080Z,14.07
2018-03-17T17:23:32.650Z,14.87
2018-03-17T17:26:00.182Z,13.37
2018-03-17T17:28:27.668Z,14.33
2018-03-17T17:30:55.188Z,13.97
2018-03-17T17:33:23.438Z,15.73
2018-03-17T17:35:50.957Z,14.40
2018-03-17T17:38:18.442Z,13.97
2018-03-17T17:40:45.960Z,13.93
2018-03-17T17:43:13.457Z,14.93
2018-03-17T17:45:41.001Z,14.90
2018-03-17T17:48:08.490Z,15.17
2018-03-17T17:50:36.061Z,16.20
2018-03-17T17:53:03.559Z,15.20
2018-03-17T17:55:31.040Z,14.90
2018-03-17T17:57:58.539Z,16.33
2018-03-17T18:00:26.036Z,15.57
2018-03-17T18:02:53.554Z,16.07
2018-03-17T18:05:21.061Z,17.70
2018-03-17T18:07:48.569Z,16.87
2018-03-17T18:10:16.046Z,15.43
2018-03-17T18:12:44.309Z,19.70
2018-03-17T18:15:12.591Z,15.03
2018-03-17T18:17:40.063Z,16.43
2018-03-17T18:20:08.308Z,14.07
2018-03-17T18:22:35.809Z,15.50
2018-03-17T18:25:03.304Z,13.50
2018-03-17T18:27:30.823Z,14.20
2018-03-17T18:29:58.328Z,13.60
2018-03-17T18:32:26.126Z,13.47
2018-03-17T18:34:54.384Z,14.80
2018-03-17T18:37:21.861Z,14.90
2018-03-17T18:39:50.187Z,15.07
2018-03-17T18:42:17.701Z,14.03
2018-03-17T18:44:46.063Z,14.60
2018-03-17T18:47:13.554Z,15.77
2018-03-17T18:49:41.080Z,14.20
2018-03-17T18:52:08.569Z,14.00
2018-03-17T18:54:36.861Z,15.87
2018-03-17T18:57:04.348Z,15.77
2018-03-17T18:59:31.852Z,15.33
2018-03-17T19:01:59.334Z,20.13
2018-03-17T19:04:26.848Z,15.60
2018-03-17T19:06:54.389Z,15.27
2018-03-17T19:09:21.896Z,14.57
2018-03-17T19:11:49.384Z,16.10
2018-03-17T19:14:16.886Z,14.97
2018-03-17T19:16:45.142Z,14.43
2018-03-17T19:19:12.726Z,17.03
2018-03-17T19:21:41.004Z,16.60
2018-03-17T19:24:09.324Z,18.10
2018-03-17T19:26:37.575Z,14.00
2018-03-17T19:29:05.084Z,16.17
2018-03-17T19:31:32.573Z,15.93
2018-03-17T19:34:00.847Z,16.33
2018-03-17T19:36:29.096Z,15.50
2018-03-17T19:38:56.673Z,16.60
2018-03-17T19:41:24.174Z,16.17
2018-03-17T19:43:51.692Z,16.90
2018-03-17T19:46:19.952Z,17.03
2018-03-17T19:48:47.473Z,17.60
2018-03-17T19:51:14.966Z,15.60
2018-03-17T19:53:42.587Z,17.53
2018-03-17T19:56:10.072Z,17.90
2018-03-17T19:58:38.268Z,17.20
2018-03-17T20:01:05.786Z,15.63
2018-03-17T20:03:33.325Z,15.70
2018-03-17T20:06:00.866Z,16.93
2018-03-17T20:08:29.139Z,15.70
2018-03-17T20:10:57.445Z,16.00
2018-03-17T20:13:24.931Z,15.63
2018-03-17T20:15:52.434Z,16.47
2018-03-17T20:18:20.687Z,14.97
2018-03-17T20:20:48.184Z,16.97
2018-03-17T20:23:15.675Z,15.60
2018-03-17T20:25:43.250Z,15.50
2018-03-17T20:28:10.739Z,15.33
2018-03-17T20:30:39.030Z,15.07
2018-03-17T20:33:06.509Z,15.00
2018-03-17T20:35:34.042Z,15.87
2018-03-17T20:38:02.276Z,14.63
2018-03-17T20:40:29.772Z,14.03
2018-03-17T20:42:58.023Z,16.77
2018-03-17T20:45:25.539Z,14.40
2018-03-17T20:47:53.854Z,16.03
2018-03-17T20:50:21.379Z,16.03
2018-03-17T20:52:48.859Z,17.67
2018-03-17T20:55:16.364Z,14.40
2018-03-17T20:57:43.844Z,14.40
2018-03-17T21:00:11.605Z,14.03
2018-03-17T21:02:39.186Z,15.37
2018-03-17T21:05:06.711Z,15.20
2018-03-17T21:07:34.190Z,13.83
2018-03-17T21:10:01.749Z,13.70
2018-03-17T21:12:29.241Z,16.33
2018-03-17T21:14:56.738Z,15.63
2018-03-17T21:17:25.010Z,15.27
2018-03-17T21:19:53.333Z,14.30
2018-03-17T21:22:21.719Z,14.20
2018-03-17T21:24:49.213Z,13.67
2018-03-17T21:27:17.506Z,14.23
2018-03-17T21:29:45.034Z,14.10
2018-03-17T21:32:12.531Z,15.93
2018-03-17T21:34:40.008Z,13.93
2018-03-17T21:37:07.561Z,14.10
2018-03-17T21:39:35.053Z,12.53
2018-03-17T21:42:02.583Z,16.47
2018-03-17T21:44:30.067Z,14.00
2018-03-17T21:46:57.574Z,13.70
2018-03-17T21:49:25.060Z,15.57
2018-03-17T21:51:52.559Z,14.40
2018-03-17T21:54:20.054Z,14.33
2018-03-17T21:56:47.625Z,13.67
2018-03-17T21:59:15.099Z,13.57
2018-03-17T22:01:42.613Z,15.70
2018-03-17T22:04:10.866Z,15.10
2018-03-17T22:06:38.412Z,13.53
2018-03-17T22:09:05.911Z,17.17
2018-03-17T22:11:34.157Z,14.47
2018-03-17T22:14:01.712Z,15.40
2018-03-17T22:16:29.206Z,14.03
2018-03-17T22:18:56.707Z,15.97
2018-03-17T22:21:24.175Z,14.93
2018-03-17T22:23:51.691Z,16.10
2018-03-17T22:26:19.225Z,15.23
2018-03-17T22:28:47.488Z,15.87
2018-03-17T22:31:14.957Z,14.73
2018-03-17T22:33:43.224Z,15.80
2018-03-17T22:36:10.738Z,15.83
2018-03-17T22:38:38.262Z,13.93
2018-03-17T22:41:06.489Z,15.43
2018-03-17T22:43:34.009Z,16.70
2018-03-17T22:46:01.502Z,23.27
2018-03-17T22:48:29.016Z,16.37
2018-03-17T22:50:56.514Z,15.90
2018-03-17T22:53:24.025Z,14.63
2018-03-17T22:55:52.313Z,19.53
2018-03-17T22:58:19.815Z,17.63
2018-03-17T23:00:47.339Z,32.87
2018-03-17T23:03:14.854Z,17.43
2018-03-17T23:05:42.364Z,17.23
2018-03-17T23:08:09.855Z,19.77
2018-03-17T23:10:37.394Z,21.30
2018-03-17T23:13:04.896Z,16.43
2018-03-17T23:15:32.389Z,15.53
2018-03-17T23:17:59.871Z,15.60
2018-03-17T23:20:27.382Z,14.30
2018-03-17T23:22:55.615Z,13.50
2018-03-17T23:25:23.161Z,14.87
2018-03-17T23:27:50.665Z,15.33
2018-03-17T23:30:18.144Z,14.20
2018-03-17T23:32:46.416Z,14.27
2018-03-17T23:35:14.670Z,14.63
2018-03-17T23:37:42.181Z,14.47
2018-03-17T23:40:09.646Z,14.50
2018-03-17T23:42:37.940Z,14.57
2018-03-17T23:45:05.451Z,15.63
2018-03-17T23:47:32.966Z,13.77
2018-03-17T23:50:00.463Z,13.83
2018-03-17T23:52:28.009Z,13.03
2018-03-17T23:54:56.265Z,14.77
2018-03-17T23:57:23.778Z,15.03
2018-03-17T23:59:51.264Z,15.80
